Flight Track Log - Related Links

Times and Time Zones

All times are in EDT time to prevent confusion due to time zone crossing. See the CDG4723 flight status page for this flight to view local times or setup timezone preferences in your user account.

Time Position Orientation Groundspeed Altitude Reporting Facility
EDT Latitude Longitude Course Direction KTS MPH feet Rate Location/Type
Tue 07:11:00 PM 29.6301 107.3015 99° East  Level Estimated
Tue 07:12:00 PM 29.6150 107.4115 99° East  Level Estimated
Tue 07:13:00 PM 29.5997 107.5214 99° East  Level Estimated
Tue 07:14:00 PM 29.5856 107.6218 99° East  Level Estimated
Tue 07:15:00 PM 29.5716 107.7221 99° East  Level Estimated
Tue 07:16:00 PM 29.5574 107.8224 99° East  Level Estimated
Tue 07:17:00 PM 29.5431 107.9227 99° East  Level Estimated
Tue 07:18:00 PM 29.5288 108.0229 99° East  Level Estimated
Tue 07:19:00 PM 29.5144 108.1231 99° East  Level Estimated
Tue 07:20:00 PM 29.4999 108.2233 99° East  Level Estimated
Tue 07:21:00 PM 29.4853 108.3234 99° East  Level Estimated
Tue 07:22:00 PM 29.4707 108.4236 100° East  Level Estimated
Tue 07:23:00 PM 29.4560 108.5237 100° East  Level Estimated
Tue 07:24:00 PM 29.4412 108.6237 100° East  Level Estimated
Tue 07:25:00 PM 29.4264 108.7238 100° East  Level Estimated
Tue 07:26:00 PM 29.4114 108.8238 100° East  Level Estimated
Tue 07:27:00 PM 29.3964 108.9238 100° East  Level Estimated
Tue 07:28:00 PM 29.3813 109.0237 100° East  Level Estimated
Tue 07:29:00 PM 29.3662 109.1236 100° East  Level Estimated
Tue 07:30:00 PM 29.3510 109.2235 100° East  Level Estimated
Tue 07:31:00 PM 29.3357 109.3234 100° East  Level Estimated
Tue 07:32:00 PM 29.3203 109.4232 100° East  Level Estimated
Tue 07:33:00 PM 29.3048 109.5230 100° East  Level Estimated
Tue 07:34:00 PM 29.2893 109.6227 100° East  Level Estimated
Tue 07:35:00 PM 29.2737 109.7225 100° East  Level Estimated
Tue 07:36:00 PM 29.2580 109.8222 100° East  Level Estimated
Tue 07:37:00 PM 29.2423 109.9219 100° East  Level Estimated
Tue 07:38:00 PM 29.2265 110.0215 100° East  Level Estimated
Tue 07:39:00 PM 29.2106 110.1211 100° East  Level Estimated
Tue 07:40:00 PM 29.1946 110.2207 100° East  Level Estimated
Tue 07:41:00 PM 29.1786 110.3203 100° East  Level Estimated
Tue 07:42:00 PM 29.1624 110.4198 100° East  Level Estimated
Tue 07:43:00 PM 29.1462 110.5193 101° East  Level Estimated
Tue 07:44:00 PM 29.1300 110.6187 101° East  Level Estimated
Tue 07:45:00 PM 29.1136 110.7181 101° East  Level Estimated
Tue 07:46:00 PM 29.0972 110.8175 101° East  Level Estimated
Tue 07:47:00 PM 29.0808 110.9169 101° East  Level Estimated
Tue 07:48:00 PM 29.0642 111.0162 101° East  Level Estimated
Tue 07:49:00 PM 29.0476 111.1155 101° East  Level Estimated
Tue 07:50:00 PM 29.0309 111.2148 101° East  Level Estimated
Tue 07:51:00 PM 29.0141 111.3140 101° East  Level Estimated
Tue 07:52:00 PM 28.9972 111.4132 101° East  Level Estimated
Tue 07:53:00 PM 28.9803 111.5124 101° East  Level Estimated
Tue 07:54:00 PM 28.9633 111.6115 101° East  Level Estimated
Tue 07:55:00 PM 28.9463 111.7106 101° East  Level Estimated
Tue 07:56:00 PM 28.9291 111.8097 101° East  Level Estimated
Tue 07:57:00 PM 28.9119 111.9088 101° East  Level Estimated
Tue 07:58:00 PM 28.8946 112.0078 101° East  Level Estimated
Tue 07:59:00 PM 28.8773 112.1067 101° East  Level Estimated
Tue 08:00:00 PM 28.8598 112.2057 101° East  Level Estimated
Tue 08:01:00 PM 28.8423 112.3046 101° East  Level Estimated
Tue 08:02:00 PM 28.8248 112.4035 101° East  Level Estimated
Tue 08:03:00 PM 28.8071 112.5023 101° East  Level Estimated
Tue 08:04:00 PM 28.7894 112.6011 102° East  Level Estimated
Tue 08:05:00 PM 28.7716 112.6999 102° East  Level Estimated
Tue 08:06:00 PM 28.7537 112.7986 102° East  Level Estimated
Tue 08:07:00 PM 28.7358 112.8973 102° East  Level Estimated
Tue 08:08:00 PM 28.7178 112.9960 102° East  Level Estimated
Tue 08:09:00 PM 28.6997 113.0946 102° East  Level Estimated
Tue 08:10:00 PM 28.6816 113.1932 102° East  Level Estimated
Tue 08:11:00 PM 28.6634 113.2918 102° East  Level Estimated
Tue 08:12:00 PM 28.6451 113.3904 102° East  Level Estimated
Tue 08:13:00 PM 28.6267 113.4889 102° East  Level Estimated
Tue 08:14:00 PM 28.6083 113.5873 102° East  Level Estimated
Tue 08:15:00 PM 28.5898 113.6857 102° East  Level Estimated
Tue 08:16:00 PM 28.5712 113.7841 102° East  Level Estimated
Tue 08:17:00 PM 28.5526 113.8825 102° East  Level Estimated
Tue 08:18:00 PM 28.5338 113.9808 102° East  Level Estimated
Tue 08:19:00 PM 28.5151 114.0791 102° East  Level Estimated
Tue 08:20:00 PM 28.4962 114.1774 102° East  Level Estimated
Tue 08:21:00 PM 28.4773 114.2756 102° East  Level Estimated
Tue 08:22:00 PM 28.4583 114.3738 102° East  Level Estimated
Tue 08:23:00 PM 28.4392 114.4719 102° East  Level Estimated
Tue 08:24:00 PM 28.4201 114.5701 102° East  Level Estimated
Tue 08:25:00 PM 28.4009 114.6681 103° East  Level Estimated
Tue 08:26:00 PM 28.3816 114.7662 103° East  Level Estimated
Tue 08:27:00 PM 28.3622 114.8642 103° East  Level Estimated
Tue 08:28:00 PM 28.3428 114.9622 103° East  Level Estimated
Tue 08:29:00 PM 28.3233 115.0601 103° East  Level Estimated
Tue 08:30:00 PM 28.3037 115.1580 103° East  Level Estimated
Tue 08:31:00 PM 28.2841 115.2559 103° East  Level Estimated
Tue 08:32:00 PM 28.2644 115.3537 103° East  Level Estimated
Tue 08:33:00 PM 28.2446 115.4515 103° East  Level Estimated
Tue 08:34:00 PM 28.2248 115.5492 103° East  Level Estimated
Tue 08:35:00 PM 28.2049 115.6470 103° East  Level Estimated
Tue 08:36:00 PM 28.1849 115.7446 103° East  Level Estimated
Tue 08:37:00 PM 28.1649 115.8423 103° East  Level Estimated
Tue 08:38:00 PM 28.1448 115.9399 103° East  Level Estimated
Tue 08:39:00 PM 28.1246 116.0375 103° East  Level Estimated
Tue 08:40:00 PM 28.1043 116.1350 103° East  Level Estimated
Tue 08:41:00 PM 28.0840 116.2325 103° East  Level Estimated
Tue 08:42:00 PM 28.0636 116.3300 103° East  Level Estimated
Tue 08:43:00 PM 28.0431 116.4274 103° East  Level Estimated
Tue 08:44:00 PM 28.0226 116.5248 103° East  Level Estimated
Tue 08:45:00 PM 28.0020 116.6221 103° East  Level Estimated
Tue 08:46:00 PM 27.9813 116.7195 104° East  Level Estimated
Tue 08:47:00 PM 27.9606 116.8167 104° East  Level Estimated
Tue 08:48:00 PM 27.9398 116.9140 104° East  Level Estimated
Tue 08:49:00 PM 27.9189 117.0112 104° East  Level Estimated
Tue 08:50:00 PM 27.8980 117.1083 104° East  Level Estimated
Tue 08:51:00 PM 27.8770 117.2055 104° East  Level Estimated
Tue 08:52:00 PM 27.8559 117.3026 104° East  Level Estimated
Tue 08:53:00 PM 27.8348 117.3996 104° East  Level Estimated
Tue 08:54:00 PM 27.8136 117.4966 104° East  Level Estimated
Tue 08:55:00 PM 27.7923 117.5936 104° East  Level Estimated
Tue 08:56:00 PM 27.7709 117.6905 104° East  Level Estimated
Tue 08:57:00 PM 27.7495 117.7874 104° East  Level Estimated
Tue 08:58:00 PM 27.7280 117.8843 104° East  Level Estimated
Tue 08:59:00 PM 27.7065 117.9811 104° East  Level Estimated
Tue 09:00:00 PM 27.7019 118.0014 104° East  Level Estimated
Tue 09:01:00 PM 27.7019 118.0014 North  Level Estimated
Tue 09:02:00 PM 27.7019 118.0014 North  Level Estimated
Tue 09:03:00 PM 27.7019 118.0014 North  Level Estimated
Tue 09:04:00 PM 27.7019 118.0014 North  Level Estimated
Tue 09:05:00 PM 27.7019 118.0014 North  Level Estimated
Tue 09:06:00 PM 27.7019 118.0014 North  Level Estimated
Tue 09:07:00 PM 27.7019 118.0014 North  Level Estimated
Tue 09:08:00 PM 27.7019 118.0014 North  Level Estimated
Tue 09:09:00 PM 27.7019 118.0014 North  Level Estimated
Tue 09:10:00 PM 27.7019 118.0014 North  Level Estimated
Tue 09:11:00 PM 27.7019 118.0014 North  Level Estimated

Login

Don't have an account? Register now (free) for customized features, flight alerts, and more!